Time;durP1;ratioP1;P1;durP2;ratioP2;P2;SDS_P1;SDS_P2;PMS_P1;PMS_P2;Temp;Humidity;BMP_temperature;BMP_pressure;BME280_temperature;BME280_humidity;BME280_pressure;Samples;Min_cycle;Max_cycle;Signal;HPM_P1;HPM_P2
2023/07/05 00:01:45;;;;;;;12.52;6.32;;;20.40;99.90;;;;;;5146308;28;20094;-87
2023/07/05 00:04:11;;;;;;;14.82;7.00;;;20.40;99.90;;;;;;5138285;28;20019;-76
2023/07/05 00:06:37;;;;;;;11.52;6.20;;;20.40;99.90;;;;;;5150361;27;20035;-81
2023/07/05 00:09:03;;;;;;;16.23;7.25;;;20.40;99.90;;;;;;5148465;27;20083;-73
2023/07/05 00:11:28;;;;;;;14.35;6.47;;;20.40;99.90;;;;;;5139599;27;20081;-77
2023/07/05 00:13:54;;;;;;;14.40;7.28;;;20.40;99.90;;;;;;5144486;27;20011;-87
2023/07/05 00:16:21;;;;;;;16.80;6.63;;;20.40;99.90;;;;;;5120304;28;20027;-85
2023/07/05 00:18:47;;;;;;;15.50;8.07;;;20.40;99.90;;;;;;5119408;28;20077;-84
2023/07/05 00:21:13;;;;;;;12.18;6.57;;;20.30;99.90;;;;;;5119711;28;20152;-86
2023/07/05 00:23:43;;;;;;;11.93;7.40;;;20.30;99.90;;;;;;5121492;28;20032;-86
2023/07/05 00:26:09;;;;;;;15.02;6.90;;;20.20;99.90;;;;;;5128384;28;20450;-80
2023/07/05 00:28:35;;;;;;;13.60;7.25;;;20.20;99.90;;;;;;5131726;28;20019;-83
2023/07/05 00:31:02;;;;;;;16.88;6.88;;;20.20;99.90;;;;;;5114404;28;20055;-86
2023/07/05 00:33:31;;;;;;;12.18;6.13;;;20.10;99.90;;;;;;5121565;28;20480;-87
2023/07/05 00:35:57;;;;;;;16.20;7.18;;;20.00;99.90;;;;;;5123317;27;20028;-86
2023/07/05 00:38:23;;;;;;;13.27;7.78;;;20.00;99.90;;;;;;5138364;27;20019;-74
2023/07/05 00:40:50;;;;;;;14.23;7.18;;;20.00;99.90;;;;;;5166692;27;20067;-74
2023/07/05 00:43:18;;;;;;;16.83;6.90;;;20.00;99.90;;;;;;5144177;27;20015;-90
2023/07/05 00:45:59;;;;;;;11.40;6.57;;;20.00;99.90;;;;;;5152896;27;20023;-76
2023/07/05 00:48:39;;;;;;;11.27;6.90;;;20.00;99.90;;;;;;5157303;27;20055;-89
2023/07/05 00:51:14;;;;;;;14.73;7.65;;;19.90;99.90;;;;;;5175863;27;20086;-90
2023/07/05 00:53:40;;;;;;;12.93;7.03;;;19.80;99.90;;;;;;5137102;27;20058;-83
2023/07/05 00:56:22;;;;;;;13.55;7.47;;;19.80;99.90;;;;;;5127256;27;20076;-85
2023/07/05 00:58:50;;;;;;;15.73;8.23;;;19.70;99.90;;;;;;5156063;27;20045;-87
2023/07/05 01:01:17;;;;;;;16.05;8.70;;;19.80;99.90;;;;;;5135361;27;20034;-74
2023/07/05 01:03:48;;;;;;;12.90;7.18;;;19.70;99.90;;;;;;5153342;27;20033;-80
2023/07/05 01:06:14;;;;;;;14.52;7.15;;;19.80;99.90;;;;;;5167197;27;20035;-82
2023/07/05 01:08:40;;;;;;;15.00;7.05;;;19.80;99.90;;;;;;5155816;27;20025;-76
2023/07/05 01:11:26;;;;;;;15.00;7.90;;;19.80;99.90;;;;;;5174195;27;20086;-85
2023/07/05 01:14:12;;;;;;;14.57;7.38;;;19.80;99.90;;;;;;5117507;27;20027;-89
2023/07/05 01:16:48;;;;;;;16.38;7.20;;;19.80;99.90;;;;;;5160178;27;20078;-89
2023/07/05 01:19:51;;;;;;;14.90;8.35;;;19.90;99.90;;;;;;5160503;27;20038;-90
2023/07/05 01:22:52;;;;;;;15.50;7.75;;;19.80;99.90;;;;;;5136017;27;20034;-87
2023/07/05 01:25:55;;;;;;;17.23;8.82;;;19.80;99.90;;;;;;5131535;27;20046;-88
2023/07/05 01:29:01;;;;;;;11.27;6.53;;;19.70;99.90;;;;;;5144378;27;20023;-78
2023/07/05 01:31:57;;;;;;;13.57;7.25;;;19.80;99.90;;;;;;5159588;27;20071;-85
2023/07/05 01:34:54;;;;;;;12.80;7.43;;;19.80;99.90;;;;;;5129723;27;20035;-88
2023/07/05 01:37:40;;;;;;;12.82;7.50;;;19.80;99.90;;;;;;5135399;27;20058;-81
2023/07/05 01:40:15;;;;;;;11.48;6.95;;;19.70;99.90;;;;;;5158452;27;20052;-79
2023/07/05 01:42:43;;;;;;;13.50;7.53;;;19.70;99.90;;;;;;5164420;27;20035;-89
2023/07/05 01:45:09;;;;;;;15.32;8.15;;;19.70;99.90;;;;;;5131331;27;20044;-88
2023/07/05 01:47:49;;;;;;;13.38;6.88;;;19.70;99.90;;;;;;5146239;27;20031;-89
2023/07/05 01:50:29;;;;;;;15.55;7.40;;;19.80;99.90;;;;;;5154370;27;20375;-77
2023/07/05 01:53:11;;;;;;;13.80;7.85;;;19.90;99.90;;;;;;5154789;27;20047;-83
2023/07/05 01:55:58;;;;;;;13.43;6.38;;;19.90;99.90;;;;;;5131962;27;20049;-85
2023/07/05 01:58:29;;;;;;;14.93;7.18;;;19.80;99.90;;;;;;5162422;27;20042;-80
2023/07/05 02:00:57;;;;;;;12.07;6.72;;;19.80;99.90;;;;;;5125120;27;20027;-89
2023/07/05 02:03:25;;;;;;;12.07;6.95;;;19.80;99.90;;;;;;5131033;27;20027;-87
2023/07/05 02:05:51;;;;;;;13.93;7.05;;;19.80;99.90;;;;;;5175869;27;20027;-82
2023/07/05 02:08:24;;;;;;;12.05;6.57;;;19.90;99.90;;;;;;5157486;27;20025;-85
2023/07/05 02:10:50;;;;;;;;;;;19.90;99.90;;;;;;5176028;27;20031;-79
2023/07/05 02:13:18;;;;;;;11.10;7.05;;;20.00;99.90;;;;;;5174877;27;19926;-81
2023/07/05 02:15:48;;;;;;;10.57;6.68;;;20.00;99.90;;;;;;5155502;27;20031;-82
2023/07/05 02:18:15;;;;;;;11.02;6.38;;;20.00;99.90;;;;;;5175289;27;20057;-79
2023/07/05 02:20:41;;;;;;;11.43;6.03;;;20.10;99.90;;;;;;5148046;27;20532;-77
2023/07/05 02:23:07;;;;;;;11.70;7.22;;;20.10;99.90;;;;;;5138529;27;20019;-83
2023/07/05 02:25:35;;;;;;;12.65;6.28;;;20.00;99.90;;;;;;5147772;27;20095;-84
2023/07/05 02:28:06;;;;;;;12.13;6.80;;;20.10;99.90;;;;;;5147171;27;20015;-89
2023/07/05 02:30:35;;;;;;;13.25;6.50;;;20.00;99.90;;;;;;5156575;27;20160;-90
2023/07/05 02:33:01;;;;;;;13.93;6.65;;;20.10;99.90;;;;;;5139450;27;20030;-90
2023/07/05 02:35:27;;;;;;;15.35;7.65;;;20.00;99.90;;;;;;5139755;27;20019;-90
2023/07/05 02:37:55;;;;;;;10.98;6.38;;;19.90;99.90;;;;;;5139078;27;20126;-89
2023/07/05 02:40:22;;;;;;;15.18;7.32;;;19.90;99.90;;;;;;5120697;27;20031;-89
2023/07/05 02:42:48;;;;;;;9.95;5.68;;;19.80;99.90;;;;;;5157174;27;20022;-90
2023/07/05 02:45:14;;;;;;;14.98;7.30;;;19.90;99.90;;;;;;5134767;27;20071;-89
2023/07/05 02:47:40;;;;;;;10.15;5.90;;;19.90;99.90;;;;;;5142618;27;20100;-74
2023/07/05 02:50:06;;;;;;;12.65;7.00;;;19.90;99.90;;;;;;5144982;27;20024;-88
2023/07/05 02:52:33;;;;;;;12.23;6.50;;;19.90;99.90;;;;;;5125826;27;20050;-89
2023/07/05 02:54:59;;;;;;;13.52;6.68;;;19.80;99.90;;;;;;5148440;27;20027;-89
2023/07/05 02:57:25;;;;;;;14.30;7.38;;;19.70;99.90;;;;;;5156843;27;20440;-86
2023/07/05 02:59:51;;;;;;;15.40;7.60;;;19.70;99.90;;;;;;5162377;27;20027;-89
2023/07/05 03:02:16;;;;;;;12.85;6.72;;;19.60;99.90;;;;;;5131282;27;20037;-89
2023/07/05 03:04:43;;;;;;;12.75;6.82;;;19.50;99.90;;;;;;5162762;27;20044;-88
2023/07/05 03:07:08;;;;;;;11.55;6.95;;;19.50;99.90;;;;;;5142396;27;20027;-87
2023/07/05 03:09:34;;;;;;;13.43;6.45;;;19.50;99.90;;;;;;5149321;27;20019;-82
2023/07/05 03:12:00;;;;;;;11.80;7.18;;;19.50;99.90;;;;;;5136820;27;20018;-85
2023/07/05 03:14:26;;;;;;;12.23;7.00;;;19.50;99.90;;;;;;5134659;27;20031;-85
2023/07/05 03:16:51;;;;;;;12.43;6.88;;;19.50;99.90;;;;;;5153251;27;20043;-79
2023/07/05 03:19:19;;;;;;;14.63;7.00;;;19.60;99.90;;;;;;5164496;27;20007;-84
2023/07/05 03:21:47;;;;;;;14.82;6.95;;;19.60;99.90;;;;;;5142208;27;20018;-75
2023/07/05 03:24:12;;;;;;;11.60;7.03;;;19.50;99.90;;;;;;5168419;27;20581;-74
2023/07/05 03:26:38;;;;;;;13.90;7.05;;;19.50;99.90;;;;;;5174180;27;19999;-77
2023/07/05 03:29:05;;;;;;;12.95;7.30;;;19.50;99.90;;;;;;5158802;27;20090;-76
2023/07/05 03:31:31;;;;;;;11.60;6.60;;;19.70;99.90;;;;;;5157983;27;20019;-75
2023/07/05 03:33:57;;;;;;;12.82;6.80;;;19.70;99.90;;;;;;5156853;27;20027;-86
2023/07/05 03:36:23;;;;;;;12.65;7.32;;;19.80;99.90;;;;;;5171552;27;20115;-77
2023/07/05 03:38:53;;;;;;;14.25;7.00;;;19.80;99.90;;;;;;5157906;27;20029;-84
2023/07/05 03:41:21;;;;;;;11.02;6.63;;;19.80;99.90;;;;;;5174463;27;20019;-90
2023/07/05 03:43:48;;;;;;;16.58;8.05;;;19.80;99.90;;;;;;5156702;27;20027;-85
2023/07/05 03:46:15;;;;;;;12.60;7.13;;;19.90;99.90;;;;;;5176124;27;20007;-75
2023/07/05 03:48:43;;;;;;;14.82;7.22;;;20.50;99.90;;;;;;5171369;27;20026;-82
2023/07/05 03:51:11;;;;;;;12.07;5.80;;;21.20;99.90;;;;;;5145505;27;20046;-81
2023/07/05 03:53:38;;;;;;;11.93;6.38;;;21.70;99.90;;;;;;5144287;27;20090;-84
2023/07/05 03:56:05;;;;;;;13.27;6.50;;;22.00;99.90;;;;;;5172266;27;20488;-74
2023/07/05 03:58:32;;;;;;;13.50;5.70;;;22.60;99.90;;;;;;5153768;27;20030;-75
2023/07/05 04:01:15;;;;;;;15.40;6.63;;;23.20;99.90;;;;;;5131187;28;20024;-86
2023/07/05 04:03:42;;;;;;;10.93;5.72;;;23.60;99.90;;;;;;5126217;27;20027;-86
2023/07/05 04:06:08;;;;;;;12.80;6.22;;;24.00;99.90;;;;;;5142616;28;20368;-87
2023/07/05 04:08:34;;;;;;;11.75;5.90;;;24.50;99.90;;;;;;5139905;27;20495;-83
2023/07/05 04:11:00;;;;;;;11.90;5.78;;;25.10;99.90;;;;;;5148532;27;20047;-75
2023/07/05 04:13:26;;;;;;;11.77;6.38;;;25.60;99.90;;;;;;5138085;28;20015;-74
2023/07/05 04:16:10;;;;;;;15.88;6.63;;;26.30;99.90;;;;;;5119340;28;20035;-75
2023/07/05 04:18:37;;;;;;;14.63;5.70;;;26.60;99.90;;;;;;5160429;27;20038;-75
2023/07/05 04:21:03;;;;;;;10.52;5.65;;;27.00;99.80;;;;;;5157156;27;20019;-84
2023/07/05 04:23:29;;;;;;;13.45;6.32;;;27.50;99.10;;;;;;5153596;27;20105;-79
2023/07/05 04:26:10;;;;;;;10.68;6.05;;;28.00;98.10;;;;;;5142490;27;20103;-74
2023/07/05 04:28:37;;;;;;;11.57;5.70;;;28.10;96.70;;;;;;5129910;28;20027;-85
2023/07/05 04:31:03;;;;;;;13.18;6.10;;;28.50;95.80;;;;;;5135013;27;20102;-84
2023/07/05 04:33:29;;;;;;;18.20;7.32;;;28.50;95.00;;;;;;5139097;28;20035;-87
2023/07/05 04:35:57;;;;;;;9.82;5.28;;;28.60;95.00;;;;;;5141138;27;20071;-79
2023/07/05 04:38:24;;;;;;;11.90;5.97;;;28.80;94.30;;;;;;5137321;28;20034;-87
2023/07/05 04:40:50;;;;;;;9.55;5.32;;;28.50;94.70;;;;;;5152891;27;20042;-86
2023/07/05 04:43:16;;;;;;;12.68;6.10;;;28.70;95.60;;;;;;5165432;27;20026;-74
2023/07/05 04:45:48;;;;;;;12.50;6.68;;;29.60;93.90;;;;;;5162175;27;20482;-82
2023/07/05 04:48:16;;;;;;;13.15;5.82;;;29.90;93.90;;;;;;5167122;27;20074;-81
2023/07/05 04:50:42;;;;;;;11.48;5.93;;;30.10;93.10;;;;;;5160958;27;20102;-74
2023/07/05 04:53:08;;;;;;;12.52;6.15;;;29.50;92.90;;;;;;5160521;27;20023;-89
2023/07/05 04:55:34;;;;;;;8.77;5.68;;;29.60;93.20;;;;;;5153886;27;20029;-86
2023/07/05 04:58:03;;;;;;;10.05;6.13;;;30.00;93.00;;;;;;5166195;27;20045;-88
2023/07/05 05:00:29;;;;;;;9.88;5.43;;;29.80;92.40;;;;;;5130789;27;20033;-77
2023/07/05 05:02:55;;;;;;;11.15;6.32;;;28.90;92.90;;;;;;5161137;27;20042;-81
2023/07/05 05:05:21;;;;;;;12.20;6.10;;;27.80;93.80;;;;;;5137398;27;20026;-85
2023/07/05 05:07:47;;;;;;;10.45;5.97;;;27.80;94.20;;;;;;5171837;27;20026;-81
2023/07/05 05:10:12;;;;;;;9.82;6.65;;;27.30;94.90;;;;;;5168709;27;20152;-74
2023/07/05 05:12:39;;;;;;;10.75;5.82;;;27.30;94.80;;;;;;5156071;27;20034;-87
2023/07/05 05:15:05;;;;;;;13.48;6.95;;;26.90;96.00;;;;;;5160779;27;20099;-87
2023/07/05 05:17:31;;;;;;;11.48;6.35;;;26.60;97.70;;;;;;5137573;27;20042;-88
2023/07/05 05:19:56;;;;;;;12.07;6.30;;;25.90;99.30;;;;;;5149734;27;20058;-76
2023/07/05 05:22:22;;;;;;;12.65;6.43;;;26.00;99.90;;;;;;5155288;27;20025;-87
2023/07/05 05:24:48;;;;;;;11.45;6.32;;;26.10;99.90;;;;;;5146342;27;20054;-81
2023/07/05 05:27:14;;;;;;;11.43;6.72;;;25.90;99.90;;;;;;5142494;27;20019;-83
2023/07/05 05:29:39;;;;;;;12.10;6.65;;;25.90;99.90;;;;;;5142296;27;20424;-73
2023/07/05 05:32:06;;;;;;;15.50;7.47;;;25.80;99.90;;;;;;5159617;27;20019;-74
2023/07/05 05:34:32;;;;;;;15.50;6.78;;;25.90;99.90;;;;;;5169171;27;20098;-74
2023/07/05 05:36:58;;;;;;;8.60;5.63;;;26.00;99.90;;;;;;5159150;27;20042;-76
2023/07/05 05:39:24;;;;;;;10.27;6.10;;;25.90;99.90;;;;;;5143542;27;20053;-87
2023/07/05 05:41:50;;;;;;;14.70;6.72;;;26.00;99.90;;;;;;5165913;27;20034;-73
2023/07/05 05:44:16;;;;;;;12.30;6.75;;;26.10;99.90;;;;;;5152378;27;20027;-74
2023/07/05 05:46:41;;;;;;;15.65;7.28;;;26.20;99.90;;;;;;5154528;27;20030;-85
2023/07/05 05:49:07;;;;;;;12.40;6.35;;;25.90;99.90;;;;;;5152686;27;20027;-84
2023/07/05 05:51:33;;;;;;;10.30;6.75;;;25.80;99.90;;;;;;5138964;27;20027;-74
2023/07/05 05:53:59;;;;;;;13.30;6.03;;;25.20;99.90;;;;;;5151705;27;20039;-74
2023/07/05 05:56:25;;;;;;;14.90;7.60;;;24.80;99.90;;;;;;5148688;27;20031;-75
2023/07/05 05:58:51;;;;;;;14.27;6.72;;;24.80;99.90;;;;;;5151196;27;20035;-75
2023/07/05 06:01:19;;;;;;;10.23;6.10;;;25.00;99.90;;;;;;5167105;27;20535;-77
2023/07/05 06:03:46;;;;;;;12.32;6.68;;;25.00;99.90;;;;;;5141307;27;20019;-87
2023/07/05 06:06:11;;;;;;;11.20;6.18;;;25.10;99.90;;;;;;5142054;27;20399;-78
2023/07/05 06:08:37;;;;;;;11.20;5.78;;;25.50;99.90;;;;;;5155538;27;20030;-89
2023/07/05 06:11:07;;;;;;;10.63;6.10;;;25.90;99.90;;;;;;5151553;27;20071;-74
2023/07/05 06:13:33;;;;;;;10.88;5.38;;;26.10;99.90;;;;;;5165236;27;20026;-83
2023/07/05 06:16:01;;;;;;;12.15;6.38;;;26.40;99.90;;;;;;5127723;27;20042;-74
2023/07/05 06:18:28;;;;;;;13.15;6.00;;;26.60;99.90;;;;;;5158966;27;20027;-88
2023/07/05 06:20:54;;;;;;;15.45;6.28;;;26.90;99.90;;;;;;5148569;27;20469;-87
2023/07/05 06:23:21;;;;;;;10.13;5.13;;;26.80;99.90;;;;;;5142075;27;20031;-75
2023/07/05 06:25:47;;;;;;;11.52;5.60;;;27.20;99.90;;;;;;5142607;27;20015;-79
2023/07/05 06:28:14;;;;;;;8.93;4.53;;;27.40;99.90;;;;;;5133940;27;20038;-77
2023/07/05 06:30:40;;;;;;;8.73;4.90;;;27.40;99.90;;;;;;5150961;27;20030;-77
2023/07/05 06:33:06;;;;;;;8.65;4.25;;;27.70;99.90;;;;;;5130575;27;20036;-84
2023/07/05 06:35:32;;;;;;;12.70;5.53;;;27.70;99.90;;;;;;5148750;27;20523;-74
2023/07/05 06:37:58;;;;;;;9.57;4.82;;;27.70;98.30;;;;;;5148542;27;20039;-74
2023/07/05 06:40:24;;;;;;;13.02;4.80;;;28.00;98.40;;;;;;5143971;27;20114;-74
2023/07/05 06:42:50;;;;;;;13.43;5.22;;;28.10;96.50;;;;;;5149793;27;20015;-80
2023/07/05 06:45:21;;;;;;;9.93;5.15;;;27.90;96.70;;;;;;5129446;27;20023;-74
2023/07/05 06:47:48;;;;;;;9.27;4.97;;;27.30;97.30;;;;;;5131614;27;20032;-77
2023/07/05 06:50:14;;;;;;;9.85;4.10;;;27.10;98.10;;;;;;5149231;27;20044;-74
2023/07/05 06:52:40;;;;;;;9.70;4.90;;;27.60;98.30;;;;;;5165248;27;20053;-74
2023/07/05 06:55:06;;;;;;;9.57;4.20;;;27.70;98.30;;;;;;5160904;27;20461;-76
2023/07/05 06:57:35;;;;;;;11.18;5.40;;;27.90;97.00;;;;;;5146920;27;20104;-86
2023/07/05 07:00:00;;;;;;;8.65;5.22;;;28.20;97.80;;;;;;5124886;27;20015;-87
2023/07/05 07:02:26;;;;;;;9.82;4.97;;;28.30;97.00;;;;;;5157777;27;20026;-87
2023/07/05 07:04:52;;;;;;;9.48;5.03;;;28.60;97.00;;;;;;5129563;27;20019;-75
2023/07/05 07:07:18;;;;;;;8.35;4.03;;;28.50;96.10;;;;;;5153824;27;20034;-76
2023/07/05 07:09:44;;;;;;;9.18;4.88;;;28.50;96.00;;;;;;5144847;27;20015;-88
2023/07/05 07:12:10;;;;;;;8.15;4.68;;;28.90;96.30;;;;;;5145792;27;20018;-84
2023/07/05 07:14:36;;;;;;;8.73;4.47;;;29.30;94.90;;;;;;5143531;27;20003;-79
2023/07/05 07:17:02;;;;;;;13.10;5.70;;;29.40;94.90;;;;;;5141988;27;20031;-84
2023/07/05 07:19:27;;;;;;;10.27;5.15;;;29.20;95.70;;;;;;5136921;27;20050;-88
2023/07/05 07:21:53;;;;;;;8.45;4.28;;;29.10;95.50;;;;;;5142421;27;20070;-79
2023/07/05 07:24:19;;;;;;;10.95;4.80;;;29.30;96.20;;;;;;5143694;27;20043;-84
2023/07/05 07:26:45;;;;;;;9.07;4.85;;;28.90;95.50;;;;;;5147765;27;20054;-75
2023/07/05 07:29:11;;;;;;;9.88;4.35;;;29.60;95.30;;;;;;5142419;27;20026;-76
2023/07/05 07:31:37;;;;;;;11.20;5.43;;;29.50;94.70;;;;;;5141740;27;20087;-80
2023/07/05 07:34:05;;;;;;;16.90;5.30;;;29.30;95.10;;;;;;5147253;27;20103;-75
2023/07/05 07:36:32;;;;;;;9.82;5.22;;;29.50;95.60;;;;;;5156225;27;20042;-89
2023/07/05 07:38:58;;;;;;;10.25;5.22;;;29.40;94.90;;;;;;5158776;27;20037;-76
2023/07/05 07:41:34;;;;;;;10.60;5.00;;;29.40;94.90;;;;;;5140538;27;20019;-81
2023/07/05 07:44:03;;;;;;;12.57;5.82;;;29.40;95.60;;;;;;5139765;27;20092;-75
2023/07/05 07:46:30;;;;;;;9.85;5.40;;;28.90;95.30;;;;;;5165539;27;20043;-86
2023/07/05 07:48:58;;;;;;;9.55;5.07;;;29.40;94.00;;;;;;5160582;27;20105;-87
2023/07/05 07:51:27;;;;;;;7.95;5.15;;;29.30;94.30;;;;;;5169711;27;20011;-75
2023/07/05 07:53:54;;;;;;;12.43;5.95;;;29.50;94.70;;;;;;5155987;27;20027;-86
2023/07/05 07:56:22;;;;;;;10.80;5.32;;;29.50;93.70;;;;;;5164189;27;20038;-86
2023/07/05 07:58:50;;;;;;;12.70;5.78;;;29.30;94.90;;;;;;5156793;27;20046;-76
2023/07/05 08:01:33;;;;;;;13.27;6.10;;;29.30;95.30;;;;;;5150640;27;20031;-87
2023/07/05 08:04:03;;;;;;;11.35;4.97;;;29.30;94.70;;;;;;5150680;27;20049;-87
2023/07/05 08:06:44;;;;;;;9.35;5.30;;;29.20;95.30;;;;;;5165372;27;20030;-76
2023/07/05 08:09:19;;;;;;;8.63;4.53;;;29.80;94.40;;;;;;5148756;27;20024;-87
2023/07/05 08:11:45;;;;;;;10.05;5.68;;;29.80;94.70;;;;;;5160668;27;20134;-76
2023/07/05 08:14:13;;;;;;;10.18;5.55;;;29.80;94.20;;;;;;5143686;27;20023;-76
2023/07/05 08:16:40;;;;;;;10.50;4.78;;;29.90;93.90;;;;;;5140709;28;20035;-76
2023/07/05 08:19:06;;;;;;;9.65;4.93;;;30.20;93.90;;;;;;5129987;28;20020;-77
2023/07/05 08:21:32;;;;;;;10.93;5.68;;;30.10;93.50;;;;;;5136778;28;20034;-75
2023/07/05 08:23:58;;;;;;;11.65;5.82;;;29.80;92.50;;;;;;5152489;27;20022;-86
2023/07/05 08:26:24;;;;;;;10.57;5.50;;;29.60;92.70;;;;;;5162750;27;20050;-75
2023/07/05 08:28:50;;;;;;;10.38;5.18;;;29.30;93.10;;;;;;5163241;27;20458;-76
2023/07/05 08:31:16;;;;;;;10.45;4.93;;;29.10;93.40;;;;;;5148402;27;20068;-75
2023/07/05 08:33:43;;;;;;;14.18;6.00;;;29.50;93.80;;;;;;5151741;27;20106;-82
2023/07/05 08:36:12;;;;;;;11.85;5.70;;;29.50;93.00;;;;;;5156464;27;20411;-74
2023/07/05 08:38:49;;;;;;;10.50;5.57;;;29.40;93.10;;;;;;5152677;27;20019;-74
2023/07/05 08:42:00;;;;;;;10.10;4.70;;;29.30;93.10;;;;;;5133317;27;20023;-74
2023/07/05 08:44:44;;;;;;;11.38;5.53;;;29.60;93.80;;;;;;5033478;28;20029;-81
2023/07/05 08:47:12;;;;;;;9.52;5.18;;;29.60;94.40;;;;;;5032506;28;20042;-85
2023/07/05 08:49:46;;;;;;;13.98;5.65;;;29.70;93.10;;;;;;5064100;28;20044;-76
2023/07/05 08:52:36;;;;;;;8.93;5.00;;;29.60;93.20;;;;;;5066465;28;20029;-76
2023/07/05 08:55:08;;;;;;;9.93;4.78;;;29.70;93.90;;;;;;5049523;28;20034;-75
2023/07/05 08:58:04;;;;;;;11.80;5.78;;;29.90;93.30;;;;;;5065692;28;20033;-75
2023/07/05 09:00:50;;;;;;;15.38;6.03;;;29.90;93.30;;;;;;4954543;29;20494;-75
2023/07/05 09:03:16;;;;;;;11.23;4.90;;;29.90;93.90;;;;;;4953247;29;20027;-75
2023/07/05 09:06:10;;;;;;;13.48;5.38;;;29.70;93.70;;;;;;4956127;29;20020;-76
2023/07/05 09:08:55;;;;;;;10.40;5.40;;;30.10;93.20;;;;;;4933975;29;20028;-75
2023/07/05 09:11:39;;;;;;;15.50;6.03;;;30.50;93.70;;;;;;4950557;29;20065;-77
2023/07/05 09:14:28;;;;;;;11.70;5.45;;;30.80;93.20;;;;;;4943390;29;20035;-87
2023/07/05 09:17:02;;;;;;;11.60;4.93;;;30.60;92.60;;;;;;4894120;29;20504;-82
2023/07/05 09:19:56;;;;;;;8.48;4.80;;;30.80;93.40;;;;;;4912518;29;20081;-76
2023/07/05 09:22:27;;;;;;;10.38;6.25;;;30.70;93.00;;;;;;5004277;28;20041;-87
2023/07/05 09:24:55;;;;;;;10.32;5.60;;;31.00;93.20;;;;;;5011263;28;20466;-79
2023/07/05 09:27:30;;;;;;;13.65;5.63;;;30.80;93.00;;;;;;5010625;28;20534;-75
2023/07/05 09:30:08;;;;;;;14.15;5.53;;;30.90;92.90;;;;;;5006620;28;20050;-89
2023/07/05 09:32:42;;;;;;;10.55;6.18;;;30.90;93.50;;;;;;5004869;28;20030;-81
2023/07/05 09:35:20;;;;;;;12.20;6.50;;;31.00;92.80;;;;;;5005423;28;20049;-87
2023/07/05 09:38:01;;;;;;;22.60;6.95;;;30.70;92.40;;;;;;5075203;28;20470;-83
2023/07/05 09:40:35;;;;;;;14.00;6.30;;;30.70;92.80;;;;;;5082406;28;20106;-85
2023/07/05 09:43:02;;;;;;;11.15;5.70;;;30.40;93.60;;;;;;5088645;28;20024;-79
2023/07/05 09:45:28;;;;;;;17.85;6.95;;;30.50;93.20;;;;;;5073057;28;20087;-87
2023/07/05 09:47:59;;;;;;;11.90;6.63;;;30.30;92.80;;;;;;5071790;28;20115;-75
2023/07/05 09:50:26;;;;;;;13.40;6.97;;;30.10;92.70;;;;;;5062119;28;20029;-76
2023/07/05 09:52:58;;;;;;;11.82;6.80;;;29.60;92.70;;;;;;5077919;28;20028;-75
2023/07/05 09:55:27;;;;;;;15.85;7.25;;;29.60;93.20;;;;;;5140929;27;20023;-86
2023/07/05 09:57:54;;;;;;;13.07;6.82;;;29.60;93.30;;;;;;5139784;27;20377;-77
2023/07/05 10:00:33;;;;;;;16.27;6.45;;;29.90;93.40;;;;;;5112855;28;20024;-78
2023/07/05 10:03:11;;;;;;;12.68;7.32;;;30.00;93.40;;;;;;5114951;28;20031;-75
2023/07/05 10:05:38;;;;;;;10.70;5.38;;;29.90;93.30;;;;;;5090576;28;20138;-76
2023/07/05 10:08:15;;;;;;;14.15;6.82;;;29.80;93.20;;;;;;5133535;27;20024;-75
2023/07/05 10:10:41;;;;;;;12.25;6.38;;;30.00;94.70;;;;;;5113071;27;20026;-77
2023/07/05 10:13:15;;;;;;;13.20;7.10;;;30.00;93.10;;;;;;5135217;27;20492;-75
2023/07/05 10:15:47;;;;;;;13.85;7.10;;;30.50;93.10;;;;;;5130930;27;20083;-75
2023/07/05 10:18:40;;;;;;;12.25;6.57;;;30.90;94.80;;;;;;5141072;27;20072;-76
2023/07/05 10:21:21;;;;;;;12.98;7.18;;;31.40;93.20;;;;;;5133073;27;20050;-75
2023/07/05 10:23:48;;;;;;;18.17;7.32;;;31.40;94.00;;;;;;5136401;27;20027;-88
2023/07/05 10:26:17;;;;;;;17.05;7.47;;;31.40;93.60;;;;;;5089464;28;20066;-74
2023/07/05 10:28:42;;;;;;;11.88;6.18;;;31.10;93.90;;;;;;5128325;28;20031;-81
2023/07/05 10:31:25;;;;;;;13.50;7.43;;;31.30;93.70;;;;;;5121913;28;20080;-88
2023/07/05 10:34:15;;;;;;;12.02;7.10;;;31.70;92.80;;;;;;5125819;28;20023;-90
2023/07/05 10:36:45;;;;;;;10.90;7.10;;;31.40;91.90;;;;;;5113261;28;20066;-78
2023/07/05 10:39:11;;;;;;;16.42;7.07;;;31.40;92.40;;;;;;5107770;28;20038;-74
2023/07/05 10:41:38;;;;;;;14.27;7.38;;;31.20;91.90;;;;;;5132080;27;20019;-78
2023/07/05 10:44:24;;;;;;;12.07;7.03;;;31.20;91.70;;;;;;5129086;27;20338;-89
2023/07/05 10:46:50;;;;;;;13.20;6.97;;;31.40;92.50;;;;;;5127185;27;20119;-84
2023/07/05 10:49:19;;;;;;;12.75;6.90;;;31.40;91.70;;;;;;5115846;28;20020;-88
2023/07/05 10:51:50;;;;;;;14.90;7.70;;;31.50;92.40;;;;;;5111720;27;20080;-88
2023/07/05 10:54:42;;;;;;;13.75;7.25;;;31.10;95.80;;;;;;5133330;27;20088;-88
2023/07/05 10:57:16;;;;;;;16.80;8.07;;;31.20;95.00;;;;;;5104091;28;20138;-88
2023/07/05 10:59:45;;;;;;;14.35;8.63;;;30.90;94.40;;;;;;5122824;27;20019;-88
2023/07/05 11:02:32;;;;;;;15.70;8.15;;;30.80;94.50;;;;;;5115569;28;20049;-84
2023/07/05 11:04:58;;;;;;;12.73;8.43;;;30.60;95.30;;;;;;5116091;27;20046;-89
2023/07/05 11:07:25;;;;;;;12.20;8.73;;;30.50;97.30;;;;;;5126220;27;20023;-87
2023/07/05 11:09:51;;;;;;;19.75;10.18;;;30.70;96.80;;;;;;5130963;27;20031;-87
2023/07/05 11:12:22;;;;;;;16.75;9.15;;;30.80;97.10;;;;;;5134889;27;20020;-85
2023/07/05 11:14:49;;;;;;;14.00;9.00;;;30.80;96.70;;;;;;5134459;27;20029;-87
2023/07/05 11:17:35;;;;;;;13.25;9.18;;;30.80;96.40;;;;;;5135372;27;20041;-89
2023/07/05 11:20:02;;;;;;;19.83;9.93;;;31.00;96.70;;;;;;5134707;27;20023;-86
2023/07/05 11:22:44;;;;;;;15.88;9.80;;;30.90;97.30;;;;;;5115665;27;20550;-84
2023/07/05 11:25:16;;;;;;;17.10;9.02;;;30.80;97.20;;;;;;5116351;27;20422;-86
2023/07/05 11:27:58;;;;;;;17.33;9.15;;;30.50;96.20;;;;;;5113903;28;20032;-84
2023/07/05 11:30:43;;;;;;;17.38;8.65;;;30.50;95.00;;;;;;5119568;27;20026;-83
2023/07/05 11:33:09;;;;;;;17.65;10.02;;;30.40;94.30;;;;;;5110270;28;20043;-82
2023/07/05 11:35:51;;;;;;;15.13;8.88;;;30.40;94.80;;;;;;5108375;27;20019;-86
2023/07/05 11:38:35;;;;;;;17.02;9.52;;;29.90;94.20;;;;;;5122128;27;20476;-85
2023/07/05 11:41:06;;;;;;;16.33;8.75;;;30.00;94.30;;;;;;5141901;27;20027;-83
2023/07/05 11:43:42;;;;;;;15.93;8.93;;;29.90;95.10;;;;;;5137519;27;20023;-83
2023/07/05 11:46:38;;;;;;;12.55;8.73;;;29.80;95.60;;;;;;5147313;27;20049;-81
2023/07/05 11:49:21;;;;;;;16.10;9.23;;;29.90;96.00;;;;;;5111058;28;20028;-75
2023/07/05 11:51:56;;;;;;;16.20;9.85;;;30.00;94.30;;;;;;5146560;27;20015;-83
2023/07/05 11:54:37;;;;;;;16.52;9.25;;;30.00;94.00;;;;;;5137140;27;20024;-84
2023/07/05 11:57:09;;;;;;;14.65;9.45;;;30.00;93.00;;;;;;5122031;28;20039;-85
2023/07/05 11:59:38;;;;;;;14.73;9.35;;;29.70;94.40;;;;;;5128751;28;20098;-86
2023/07/05 12:02:23;;;;;;;13.43;9.65;;;30.30;93.00;;;;;;5133335;27;20074;-81
2023/07/05 12:04:53;;;;;;;17.30;9.82;;;30.60;94.20;;;;;;5119855;28;20028;-82
2023/07/05 12:07:21;;;;;;;18.42;10.60;;;30.70;94.90;;;;;;5124181;28;20027;-86
2023/07/05 12:09:48;;;;;;;17.85;10.30;;;30.90;94.70;;;;;;5123266;28;20154;-85
2023/07/05 12:12:19;;;;;;;15.85;9.73;;;30.70;94.90;;;;;;5124372;28;20023;-86
2023/07/05 12:14:45;;;;;;;18.48;10.80;;;30.70;94.40;;;;;;5108178;28;20035;-81
2023/07/05 12:17:17;;;;;;;16.10;8.88;;;30.80;94.40;;;;;;5135684;28;20036;-86
2023/07/05 12:19:48;;;;;;;17.50;9.18;;;30.80;93.60;;;;;;5119968;28;20036;-82
2023/07/05 12:22:25;;;;;;;15.93;11.13;;;30.90;93.60;;;;;;5114520;28;20089;-74
2023/07/05 12:24:57;;;;;;;18.02;9.60;;;31.20;94.00;;;;;;5122085;28;20032;-80
2023/07/05 12:27:27;;;;;;;;;;;31.30;93.20;;;;;;5113635;28;20032;-82
2023/07/05 12:29:58;;;;;;;16.40;9.27;;;31.30;93.30;;;;;;5127838;28;20417;-83
2023/07/05 12:32:26;;;;;;;15.10;9.77;;;31.60;93.60;;;;;;5131634;28;20089;-86
2023/07/05 12:35:10;;;;;;;15.82;10.13;;;;;;;;;;5104370;28;20102;-86
2023/07/05 12:37:39;;;;;;;16.17;10.48;;;31.60;97.90;;;;;;5131280;28;20031;-83
2023/07/05 12:40:12;;;;;;;14.32;10.02;;;31.60;91.70;;;;;;5112547;28;20034;-83
2023/07/05 12:43:03;;;;;;;17.85;10.93;;;31.60;91.60;;;;;;5100551;28;20054;-84
2023/07/05 12:45:38;;;;;;;16.08;10.48;;;31.60;91.90;;;;;;5055791;28;20502;-88
2023/07/05 12:48:20;;;;;;;16.95;9.13;;;31.50;91.40;;;;;;5049915;28;20139;-74
2023/07/05 12:50:47;;;;;;;17.85;10.73;;;31.70;90.80;;;;;;5049423;28;20486;-84
2023/07/05 12:53:22;;;;;;;15.77;9.82;;;31.80;91.40;;;;;;5043721;28;20052;-85
2023/07/05 12:56:03;;;;;;;16.15;10.88;;;32.30;94.60;;;;;;5065422;28;20123;-86
2023/07/05 12:58:30;;;;;;;15.27;10.13;;;31.60;91.90;;;;;;5066057;28;20029;-81